createdAt,value
2019-05-16T00:01:09.420Z,97141.37
2019-05-16T00:03:39.063Z,97137.84
2019-05-16T00:06:08.694Z,97133.17
2019-05-16T00:08:38.839Z,97127.84
2019-05-16T00:11:08.680Z,97124.06
2019-05-16T00:13:38.421Z,97119.60
2019-05-16T00:16:08.110Z,97103.88
2019-05-16T00:18:38.821Z,97108.39
2019-05-16T00:21:08.779Z,97101.72
2019-05-16T00:23:38.314Z,97104.21
2019-05-16T00:26:07.983Z,97104.17
2019-05-16T00:28:37.991Z,97095.34
2019-05-16T00:31:08.616Z,97096.56
2019-05-16T00:33:38.162Z,97099.69
2019-05-16T00:36:09.227Z,97091.75
2019-05-16T00:38:38.700Z,97097.80
2019-05-16T00:41:08.613Z,97086.33
2019-05-16T00:43:38.221Z,97091.16
2019-05-16T00:46:08.248Z,97091.56
2019-05-16T00:48:38.266Z,97094.89
2019-05-16T00:51:08.050Z,97087.44
2019-05-16T00:53:38.268Z,97086.11
2019-05-16T00:56:08.730Z,97081.70
2019-05-16T00:58:38.755Z,97083.91
2019-05-16T01:01:08.649Z,97078.64
2019-05-16T01:03:37.976Z,97076.72
2019-05-16T01:06:16.608Z,97072.06
2019-05-16T01:08:38.621Z,97072.69
2019-05-16T01:11:08.097Z,97068.28
2019-05-16T01:13:38.093Z,97066.02
2019-05-16T01:16:08.589Z,97062.72
2019-05-16T01:18:38.123Z,97060.65
2019-05-16T01:21:07.824Z,97058.36
2019-05-16T01:23:38.829Z,97063.02
2019-05-16T01:26:08.227Z,97058.13
2019-05-16T01:28:37.851Z,97060.00
2019-05-16T01:31:08.605Z,97060.31
2019-05-16T01:33:38.629Z,97054.86
2019-05-16T01:36:08.960Z,97057.28
2019-05-16T01:38:39.055Z,97049.28
2019-05-16T01:41:08.820Z,97050.66
2019-05-16T01:43:38.334Z,97051.34
2019-05-16T01:46:08.414Z,97057.41
2019-05-16T01:48:38.301Z,97049.52
2019-05-16T01:51:07.926Z,97045.74
2019-05-16T01:53:39.415Z,97046.00
2019-05-16T01:56:08.664Z,97045.00
2019-05-16T01:58:38.307Z,97040.66
2019-05-16T02:01:13.395Z,97042.56
2019-05-16T02:03:38.881Z,97035.27
2019-05-16T02:06:08.807Z,97036.41
2019-05-16T02:08:38.280Z,97026.11
2019-05-16T02:11:08.549Z,97026.56
2019-05-16T02:13:39.100Z,97028.56
2019-05-16T02:16:08.921Z,97034.17
2019-05-16T02:18:38.342Z,97023.95
2019-05-16T02:21:07.942Z,97022.11
2019-05-16T02:23:38.170Z,97025.99
2019-05-16T02:26:07.996Z,97020.56
2019-05-16T02:28:40.921Z,97021.31
2019-05-16T02:31:14.809Z,97017.02
2019-05-16T02:33:40.747Z,97013.02
2019-05-16T02:36:11.101Z,97015.22
2019-05-16T02:38:42.270Z,97013.70
2019-05-16T02:41:11.562Z,97009.22
2019-05-16T02:43:42.031Z,97013.94
2019-05-16T02:46:12.285Z,97016.30
2019-05-16T02:48:42.243Z,97015.27
2019-05-16T02:51:11.640Z,97008.48
2019-05-16T02:53:41.781Z,97003.72
2019-05-16T02:56:12.128Z,97006.44
2019-05-16T02:58:44.824Z,97011.58
2019-05-16T03:01:12.807Z,97006.78
2019-05-16T03:03:44.089Z,97008.13
2019-05-16T03:06:14.316Z,97000.24
2019-05-16T03:08:46.215Z,96995.84
2019-05-16T03:11:15.994Z,96984.30
2019-05-16T03:13:46.560Z,96984.59
2019-05-16T03:16:17.186Z,96978.78
2019-05-16T03:18:47.628Z,96978.52
2019-05-16T03:21:17.389Z,96974.97
2019-05-16T03:23:47.017Z,96973.47
2019-05-16T03:26:16.324Z,96966.49
2019-05-16T03:28:45.715Z,96967.35
2019-05-16T03:31:15.907Z,96971.23
2019-05-16T03:33:56.416Z,96964.45
2019-05-16T03:36:16.672Z,96961.64
2019-05-16T03:38:46.029Z,96965.02
2019-05-16T03:41:15.246Z,96962.53
2019-05-16T03:43:44.603Z,96961.94
2019-05-16T03:46:13.914Z,96958.33
2019-05-16T03:48:43.221Z,96956.73
2019-05-16T03:51:12.703Z,96960.36
2019-05-16T03:53:42.011Z,96958.33
2019-05-16T03:56:11.429Z,96952.61
2019-05-16T03:58:41.431Z,96958.93
2019-05-16T04:01:11.756Z,96952.02
2019-05-16T04:03:41.705Z,96953.81
2019-05-16T04:06:12.165Z,96949.92
2019-05-16T04:08:41.663Z,96950.38
2019-05-16T04:11:11.811Z,96948.30
2019-05-16T04:13:41.720Z,96948.30
2019-05-16T04:16:12.126Z,96958.97
2019-05-16T04:18:42.263Z,96953.28
2019-05-16T04:21:12.203Z,96948.57
2019-05-16T04:23:42.086Z,96941.34
2019-05-16T04:26:11.863Z,96944.42
2019-05-16T04:28:41.642Z,96952.83
2019-05-16T04:31:11.525Z,96953.88
2019-05-16T04:33:41.748Z,96949.69
2019-05-16T04:36:11.479Z,96945.33
2019-05-16T04:38:46.496Z,96943.88
2019-05-16T04:41:12.579Z,96951.87
2019-05-16T04:43:41.936Z,96945.53
2019-05-16T04:46:11.903Z,96943.78
2019-05-16T04:48:41.976Z,96945.90
2019-05-16T04:51:26.744Z,96939.03
2019-05-16T04:53:55.960Z,96946.27
2019-05-16T04:56:25.263Z,96941.92
2019-05-16T04:58:54.471Z,96932.80
2019-05-16T05:01:23.740Z,96928.59
2019-05-16T05:04:06.256Z,96932.09
2019-05-16T05:06:24.104Z,96928.04
2019-05-16T05:08:58.525Z,96931.86
2019-05-16T05:11:24.488Z,96929.23
2019-05-16T05:13:53.744Z,96933.39
2019-05-16T05:16:23.061Z,96932.95
2019-05-16T05:18:52.284Z,96936.20
2019-05-16T05:21:21.486Z,96938.36
2019-05-16T05:23:51.007Z,96932.47
2019-05-16T05:26:20.274Z,96933.35
2019-05-16T05:28:50.814Z,96932.80
2019-05-16T05:31:24.925Z,96937.63
2019-05-16T05:33:51.394Z,96930.09
2019-05-16T05:36:21.238Z,96927.52
2019-05-16T05:39:06.282Z,96926.50
2019-05-16T05:41:21.843Z,96921.20
2019-05-16T05:43:51.057Z,96916.92
2019-05-16T05:46:20.635Z,96924.23
2019-05-16T05:48:50.504Z,96924.08
2019-05-16T05:51:20.713Z,96926.72
2019-05-16T05:53:50.965Z,96928.08
2019-05-16T05:56:20.623Z,96926.74
2019-05-16T05:58:51.175Z,96926.42
2019-05-16T06:01:20.928Z,96933.08
2019-05-16T06:03:50.648Z,96931.16
2019-05-16T06:06:21.008Z,96932.50
2019-05-16T06:08:50.484Z,96932.90
2019-05-16T06:11:20.471Z,96938.85
2019-05-16T06:13:50.249Z,96931.42
2019-05-16T06:16:20.431Z,96933.45
2019-05-16T06:18:50.421Z,96927.21
2019-05-16T06:21:20.441Z,96924.73
2019-05-16T06:23:50.893Z,96919.22
2019-05-16T06:26:20.733Z,96916.83
2019-05-16T06:28:52.705Z,96917.33
2019-05-16T06:31:22.437Z,96912.53
2019-05-16T06:33:51.685Z,96910.89
2019-05-16T06:36:21.009Z,96911.70
2019-05-16T06:38:50.439Z,96910.38
2019-05-16T06:41:20.075Z,96905.96
2019-05-16T06:43:50.705Z,96908.09
2019-05-16T06:46:20.314Z,96898.43
2019-05-16T06:48:50.607Z,96901.33
2019-05-16T06:51:20.264Z,96899.87
2019-05-16T06:53:49.998Z,96902.22
2019-05-16T06:56:20.143Z,96903.73
2019-05-16T06:58:51.924Z,96904.61
2019-05-16T07:01:21.114Z,96898.19
2019-05-16T07:03:51.037Z,96896.66
2019-05-16T07:06:46.050Z,96896.84
2019-05-16T07:08:51.598Z,96890.58
2019-05-16T07:11:21.008Z,96883.11
2019-05-16T07:13:51.995Z,96895.62
2019-05-16T07:16:21.567Z,96891.37
2019-05-16T07:18:50.960Z,96887.82
2019-05-16T07:21:20.418Z,96887.40
2019-05-16T07:23:51.081Z,96885.05
2019-05-16T07:26:20.815Z,96895.03
2019-05-16T07:28:51.539Z,96891.77
2019-05-16T07:31:22.605Z,96889.33
2019-05-16T07:33:52.271Z,96882.95
2019-05-16T07:36:21.589Z,96877.77
2019-05-16T07:38:50.978Z,96880.92
2019-05-16T07:41:20.568Z,96875.09
2019-05-16T07:43:50.743Z,96875.44
2019-05-16T07:46:20.719Z,96863.07
2019-05-16T07:48:51.734Z,96863.36
2019-05-16T07:51:21.189Z,96867.02
2019-05-16T07:53:50.731Z,96862.70
2019-05-16T07:56:20.598Z,96865.41
2019-05-16T07:58:50.688Z,96865.02
2019-05-16T08:01:20.537Z,96857.65
2019-05-16T08:03:50.999Z,96857.53
2019-05-16T08:06:20.500Z,96847.48
2019-05-16T08:08:50.988Z,96839.52
2019-05-16T08:11:23.760Z,96831.17
2019-05-16T08:13:51.766Z,96831.17
2019-05-16T08:16:21.085Z,96822.17
2019-05-16T08:18:50.831Z,96828.64
2019-05-16T08:21:20.544Z,96828.64
2019-05-16T08:23:50.707Z,96824.03
2019-05-16T08:28:51.486Z,96825.42
2019-05-16T08:33:54.609Z,96819.03
2019-05-16T08:36:23.224Z,96824.38
2019-05-16T08:38:52.572Z,96817.26
2019-05-16T08:41:22.439Z,96818.27
2019-05-16T08:43:53.218Z,96815.67
2019-05-16T08:46:23.008Z,96819.11
2019-05-16T08:50:10.776Z,96823.64
2019-05-16T08:51:23.369Z,96818.50
2019-05-16T08:53:52.931Z,96801.74
2019-05-16T08:56:22.633Z,96798.02
2019-05-16T08:58:53.813Z,96793.19
2019-05-16T09:01:23.118Z,96796.69
2019-05-16T09:03:52.593Z,96795.97
2019-05-16T09:06:22.993Z,96795.39
2019-05-16T09:08:52.919Z,96793.02
2019-05-16T09:10:20.787Z,96819.44
2019-05-16T09:10:35.111Z,96814.36
2019-05-16T09:11:38.964Z,96791.55
2019-05-16T09:13:53.371Z,96789.30
2019-05-16T09:16:22.916Z,96785.23
2019-05-16T09:18:52.340Z,96782.34
2019-05-16T09:21:21.762Z,96768.00
2019-05-16T09:23:51.149Z,96768.94
2019-05-16T09:26:20.583Z,96767.57
2019-05-16T09:28:50.093Z,96777.61
2019-05-16T09:31:19.371Z,96773.12
2019-05-16T09:33:48.643Z,96780.83
2019-05-16T09:36:18.030Z,96781.61
2019-05-16T09:38:48.674Z,96778.20
2019-05-16T09:41:18.390Z,96778.53
2019-05-16T09:43:48.901Z,96773.95
2019-05-16T09:46:18.337Z,96759.23
2019-05-16T09:48:48.149Z,96755.53
2019-05-16T09:51:21.064Z,96756.15
2019-05-16T09:53:48.793Z,96748.55
2019-05-16T09:56:18.202Z,96744.04
2019-05-16T09:58:47.586Z,96747.84
2019-05-16T10:01:17.555Z,96743.81
2019-05-16T10:03:47.707Z,96735.84
2019-05-16T10:06:19.209Z,96733.94
2019-05-16T10:08:48.365Z,96729.66
2019-05-16T10:11:18.254Z,96736.84
2019-05-16T10:13:47.860Z,96740.47
2019-05-16T10:16:17.478Z,96730.73
2019-05-16T10:18:47.643Z,96734.41
2019-05-16T10:21:20.421Z,96744.33
2019-05-16T10:23:48.378Z,96731.53
2019-05-16T10:26:19.447Z,96723.67
2019-05-16T10:28:48.968Z,96721.58
2019-05-16T10:31:18.373Z,96711.03
2019-05-16T10:33:47.998Z,96710.06
2019-05-16T10:36:21.426Z,96706.28
2019-05-16T10:38:48.639Z,96709.28
2019-05-16T10:41:17.946Z,96706.66
2019-05-16T10:43:47.565Z,96696.34
2019-05-16T10:46:17.821Z,96692.70
2019-05-16T10:48:47.336Z,96696.50
2019-05-16T10:51:17.118Z,96703.17
2019-05-16T10:54:05.640Z,96708.13
2019-05-16T10:56:17.544Z,96703.44
2019-05-16T10:59:04.980Z,96700.72
2019-05-16T11:01:26.953Z,96688.12
2019-05-16T11:03:49.341Z,96686.37
2019-05-16T11:06:25.769Z,96681.09
2019-05-16T11:08:49.717Z,96687.63
2019-05-16T11:11:19.959Z,96672.80
2019-05-16T11:13:51.247Z,96683.27
2019-05-16T11:16:20.572Z,96686.52
2019-05-16T11:18:49.760Z,96677.78
2019-05-16T11:21:19.475Z,96685.45
2019-05-16T11:23:48.887Z,96676.30
2019-05-16T11:26:18.245Z,96675.81
2019-05-16T11:28:48.918Z,96668.41
2019-05-16T11:31:18.496Z,96671.30
2019-05-16T11:33:47.878Z,96661.12
2019-05-16T11:36:17.188Z,96659.27
2019-05-16T11:38:47.478Z,96663.45
2019-05-16T11:41:17.108Z,96661.94
2019-05-16T11:43:47.356Z,96664.08
2019-05-16T11:46:16.953Z,96666.73
2019-05-16T11:48:48.646Z,96655.34
2019-05-16T11:51:17.598Z,96650.77
2019-05-16T11:53:47.639Z,96650.81
2019-05-16T11:56:17.324Z,96651.08
2019-05-16T11:58:47.325Z,96653.41
2019-05-16T12:01:16.861Z,96658.89
2019-05-16T12:03:46.855Z,96641.88
2019-05-16T12:06:17.134Z,96642.66
2019-05-16T12:08:46.862Z,96642.29
2019-05-16T12:11:17.859Z,96642.82
2019-05-16T12:13:47.839Z,96638.12
2019-05-16T12:16:18.812Z,96635.25
2019-05-16T12:18:48.489Z,96629.39
2019-05-16T12:21:17.870Z,96619.41
2019-05-16T12:23:47.445Z,96614.66
2019-05-16T12:26:17.691Z,96611.13
2019-05-16T12:28:47.281Z,96606.27
2019-05-16T12:31:17.388Z,96613.98
2019-05-16T12:33:47.810Z,96597.73
2019-05-16T12:36:17.727Z,96606.84
2019-05-16T12:38:47.212Z,96610.24
2019-05-16T12:41:16.698Z,96603.80
2019-05-16T12:43:53.151Z,96600.08
2019-05-16T12:46:17.014Z,96602.66
2019-05-16T12:48:47.392Z,96601.70
2019-05-16T12:51:17.227Z,96594.25
2019-05-16T12:53:47.716Z,96592.37
2019-05-16T12:56:17.664Z,96593.73
2019-05-16T12:58:47.411Z,96587.71
2019-05-16T13:01:20.711Z,96579.48
2019-05-16T13:03:49.516Z,96578.31
2019-05-16T13:06:18.897Z,96573.67
2019-05-16T13:08:48.281Z,96580.26
2019-05-16T13:11:17.874Z,96575.62
2019-05-16T13:14:02.135Z,96572.75
2019-05-16T13:16:18.481Z,96568.33
2019-05-16T13:18:47.830Z,96556.83
2019-05-16T13:21:18.454Z,96542.73
2019-05-16T13:23:48.183Z,96539.15
2019-05-16T13:26:17.847Z,96537.55
2019-05-16T13:28:47.782Z,96533.87
2019-05-16T13:31:17.470Z,96534.03
2019-05-16T13:33:46.911Z,96533.54
2019-05-16T13:36:17.412Z,96507.97
2019-05-16T13:38:48.017Z,96523.12
2019-05-16T13:41:18.410Z,96520.63
2019-05-16T13:43:47.901Z,96514.28
2019-05-16T13:46:17.358Z,96518.60
2019-05-16T13:48:46.640Z,96516.64
2019-05-16T13:51:18.910Z,96498.47
2019-05-16T13:53:47.365Z,96490.34
2019-05-16T13:56:17.834Z,96490.80
2019-05-16T13:58:47.461Z,96472.30
2019-05-16T14:01:17.318Z,96476.69
2019-05-16T14:03:48.236Z,96473.58
2019-05-16T14:06:18.590Z,96472.37
2019-05-16T14:08:48.090Z,96475.23
2019-05-16T14:11:17.403Z,96470.13
2019-05-16T14:13:47.125Z,96456.42
2019-05-16T14:16:18.055Z,96454.14
2019-05-16T14:18:47.571Z,96454.24
2019-05-16T14:21:18.178Z,96449.89
2019-05-16T14:23:53.189Z,96452.84
2019-05-16T14:26:18.968Z,96451.85
2019-05-16T14:28:49.168Z,96451.58
2019-05-16T14:31:18.851Z,96443.55
2019-05-16T14:33:48.149Z,96436.02
2019-05-16T14:36:17.602Z,96427.84
2019-05-16T14:38:46.999Z,96421.98
2019-05-16T14:41:17.358Z,96419.73
2019-05-16T14:43:47.053Z,96422.73
2019-05-16T14:46:18.281Z,96426.08
2019-05-16T14:48:47.644Z,96419.91
2019-05-16T14:51:18.065Z,96419.34
2019-05-16T14:53:47.854Z,96415.92
2019-05-16T14:56:17.212Z,96423.76
2019-05-16T14:58:48.588Z,96416.37
2019-05-16T15:01:17.838Z,96405.47
2019-05-16T15:03:47.475Z,96404.98
2019-05-16T15:06:18.244Z,96412.06
2019-05-16T15:08:47.761Z,96413.05
2019-05-16T15:11:18.037Z,96410.55
2019-05-16T15:13:47.601Z,96408.48
2019-05-16T15:16:17.141Z,96408.13
2019-05-16T15:18:47.560Z,96411.50
2019-05-16T15:21:17.871Z,96408.12
2019-05-16T15:23:47.288Z,96408.77
2019-05-16T15:26:18.094Z,96401.45
2019-05-16T15:28:51.305Z,96402.84
2019-05-16T15:31:18.572Z,96395.45
2019-05-16T15:33:47.926Z,96401.19
2019-05-16T15:36:17.207Z,96398.32
2019-05-16T15:38:47.250Z,96397.56
2019-05-16T15:41:17.447Z,96392.16
2019-05-16T15:43:47.095Z,96387.66
2019-05-16T15:46:17.445Z,96386.56
2019-05-16T15:48:48.762Z,96379.52
2019-05-16T15:51:21.224Z,96367.45
2019-05-16T15:53:49.599Z,96373.86
2019-05-16T15:56:19.031Z,96361.62
2019-05-16T15:58:49.304Z,96362.89
2019-05-16T16:01:18.780Z,96363.71
2019-05-16T16:03:48.078Z,96360.26
2019-05-16T16:06:17.902Z,96359.78
2019-05-16T16:08:47.892Z,96351.75
2019-05-16T16:11:17.453Z,96353.62
2019-05-16T16:13:48.394Z,96348.89
2019-05-16T16:16:17.841Z,96350.75
2019-05-16T16:18:47.305Z,96354.12
2019-05-16T16:21:16.850Z,96349.30
2019-05-16T16:23:47.329Z,96352.78
2019-05-16T16:26:17.922Z,96351.50
2019-05-16T16:28:47.373Z,96352.82
2019-05-16T16:31:17.020Z,96358.17
2019-05-16T16:33:46.595Z,96352.27
2019-05-16T16:36:17.100Z,96352.27
2019-05-16T16:38:47.671Z,96362.89
2019-05-16T16:41:17.175Z,96369.78
2019-05-16T16:43:47.689Z,96373.99
2019-05-16T16:46:17.307Z,96373.44
2019-05-16T16:48:47.021Z,96374.91
2019-05-16T16:51:17.637Z,96374.39
2019-05-16T16:53:47.590Z,96373.52
2019-05-16T16:56:17.047Z,96373.71
2019-05-16T16:58:46.765Z,96370.75
2019-05-16T17:01:17.388Z,96369.92
2019-05-16T17:03:47.076Z,96369.91
2019-05-16T17:06:17.715Z,96372.90
2019-05-16T17:08:47.574Z,96367.05
2019-05-16T17:11:17.011Z,96368.45
2019-05-16T17:13:47.209Z,96364.80
2019-05-16T17:16:25.773Z,96365.14
2019-05-16T17:18:48.241Z,96368.27
2019-05-16T17:21:17.567Z,96370.78
2019-05-16T17:23:46.840Z,96367.23
2019-05-16T17:26:16.225Z,96362.82
2019-05-16T17:28:46.751Z,96362.73
2019-05-16T17:31:16.893Z,96355.16
2019-05-16T17:33:46.514Z,96363.18
2019-05-16T17:36:17.257Z,96362.09
2019-05-16T17:38:46.763Z,96366.11
2019-05-16T17:41:16.842Z,96362.44
2019-05-16T17:43:46.969Z,96365.54
2019-05-16T17:46:16.415Z,96363.05
2019-05-16T17:48:46.776Z,96364.34
2019-05-16T17:51:16.931Z,96363.58
2019-05-16T17:53:46.291Z,96363.07
2019-05-16T17:56:17.112Z,96365.87
2019-05-16T17:58:46.715Z,96371.27
2019-05-16T18:01:17.115Z,96369.59
2019-05-16T18:03:46.670Z,96369.89
2019-05-16T18:06:16.972Z,96376.75
2019-05-16T18:08:46.941Z,96371.69
2019-05-16T18:11:17.779Z,96369.57
2019-05-16T18:13:47.477Z,96369.11
2019-05-16T18:16:16.906Z,96371.91
2019-05-16T18:18:46.979Z,96375.20
2019-05-16T18:21:17.020Z,96374.66
2019-05-16T18:23:47.201Z,96369.22
2019-05-16T18:26:17.367Z,96360.45
2019-05-16T18:28:47.097Z,96357.73
2019-05-16T18:31:17.371Z,96355.38
2019-05-16T18:33:47.159Z,96348.95
2019-05-16T18:36:17.133Z,96355.34
2019-05-16T18:38:46.793Z,96349.31
2019-05-16T18:41:16.689Z,96346.95
2019-05-16T18:43:47.199Z,96339.84
2019-05-16T18:46:16.631Z,96347.42
2019-05-16T18:48:47.183Z,96343.91
2019-05-16T18:51:16.701Z,96347.77
2019-05-16T18:53:46.568Z,96348.40
2019-05-16T18:56:16.937Z,96350.78
2019-05-16T18:58:46.843Z,96352.72
2019-05-16T19:01:17.617Z,96355.73
2019-05-16T19:03:48.953Z,96346.86
2019-05-16T19:06:18.955Z,96343.91
2019-05-16T19:08:48.974Z,96347.89
2019-05-16T19:11:20.868Z,96342.28
2019-05-16T19:13:50.644Z,96344.48
2019-05-16T19:16:20.171Z,96343.41
2019-05-16T19:18:49.952Z,96347.47
2019-05-16T19:21:19.514Z,96345.86
2019-05-16T19:23:49.062Z,96348.58
2019-05-16T19:26:18.543Z,96344.80
2019-05-16T19:28:47.895Z,96344.80
2019-05-16T19:31:17.578Z,96337.27
2019-05-16T19:33:48.845Z,96334.59
2019-05-16T19:36:18.496Z,96335.13
2019-05-16T19:38:47.866Z,96334.33
2019-05-16T19:41:17.292Z,96332.73
2019-05-16T19:43:49.244Z,96337.56
2019-05-16T19:46:18.567Z,96341.82
2019-05-16T19:48:48.063Z,96345.86
2019-05-16T19:51:17.317Z,96344.80
2019-05-16T19:53:47.157Z,96352.53
2019-05-16T19:56:17.753Z,96353.30
2019-05-16T19:58:47.227Z,96356.52
2019-05-16T20:01:16.873Z,96357.08
2019-05-16T20:03:47.104Z,96352.76
2019-05-16T20:06:16.946Z,96350.37
2019-05-16T20:08:46.675Z,96344.95
2019-05-16T20:11:16.845Z,96347.70
2019-05-16T20:13:47.370Z,96353.31
2019-05-16T20:16:18.433Z,96353.57
2019-05-16T20:18:48.025Z,96351.16
2019-05-16T20:21:18.514Z,96348.45
2019-05-16T20:23:47.997Z,96341.73
2019-05-16T20:26:47.240Z,96346.81
2019-05-16T20:29:17.166Z,96337.98
2019-05-16T20:31:47.472Z,96341.20
2019-05-16T20:34:17.688Z,96336.91
2019-05-16T20:36:47.215Z,96340.91
2019-05-16T20:39:17.212Z,96338.25
2019-05-16T20:41:47.554Z,96339.64
2019-05-16T20:44:17.487Z,96340.68
2019-05-16T20:46:49.598Z,96339.86
2019-05-16T20:49:17.935Z,96330.80
2019-05-16T20:51:50.086Z,96327.83
2019-05-16T20:54:18.292Z,96324.08
2019-05-16T20:56:49.532Z,96324.63
2019-05-16T20:59:18.797Z,96324.36
2019-05-16T21:01:49.295Z,96324.11
2019-05-16T21:04:18.796Z,96324.36
2019-05-16T21:07:00.443Z,96316.30
2019-05-16T21:09:19.745Z,96318.97
2019-05-16T21:11:49.990Z,96315.49
2019-05-16T21:14:19.667Z,96309.88
2019-05-16T21:16:49.551Z,96306.39
2019-05-16T21:19:19.126Z,96305.55
2019-05-16T21:21:48.423Z,96303.69
2019-05-16T21:24:17.693Z,96303.94
2019-05-16T21:26:46.974Z,96298.28
2019-05-16T21:29:16.433Z,96299.65
2019-05-16T21:31:47.409Z,96294.58
2019-05-16T21:34:19.112Z,96300.39
2019-05-16T21:36:47.670Z,96291.30
2019-05-16T21:39:17.667Z,96288.86
2019-05-16T21:41:47.313Z,96284.33
2019-05-16T21:44:17.199Z,96277.62
2019-05-16T21:46:47.086Z,96284.83
2019-05-16T21:49:19.508Z,96281.40
2019-05-16T21:51:47.682Z,96277.91
2019-05-16T21:54:16.992Z,96274.41
2019-05-16T21:56:46.857Z,96273.89
2019-05-16T21:59:16.136Z,96271.70
2019-05-16T22:01:47.256Z,96269.10
2019-05-16T22:04:16.926Z,96266.93
2019-05-16T22:06:47.506Z,96271.48
2019-05-16T22:09:17.777Z,96259.20
2019-05-16T22:11:47.110Z,96254.11
2019-05-16T22:14:19.152Z,96257.84
2019-05-16T22:16:48.693Z,96252.24
2019-05-16T22:19:17.935Z,96251.97
2019-05-16T22:21:47.205Z,96246.07
2019-05-16T22:24:17.195Z,96240.41
2019-05-16T22:26:46.773Z,96235.09
2019-05-16T22:29:17.065Z,96232.66
2019-05-16T22:31:47.232Z,96230.02
2019-05-16T22:34:17.011Z,96227.03
2019-05-16T22:36:49.247Z,96227.59
2019-05-16T22:39:17.624Z,96224.64
2019-05-16T22:41:46.878Z,96219.00
2019-05-16T22:44:17.696Z,96214.67
2019-05-16T22:46:47.087Z,96209.58
2019-05-16T22:49:16.936Z,96212.53
2019-05-16T22:51:46.546Z,96211.99
2019-05-16T22:54:17.181Z,96205.58
2019-05-16T22:56:46.825Z,96206.06
2019-05-16T22:59:16.623Z,96203.91
2019-05-16T23:01:46.361Z,96195.66
2019-05-16T23:04:16.812Z,96193.76
2019-05-16T23:06:46.601Z,96188.11
2019-05-16T23:09:16.410Z,96185.95
2019-05-16T23:11:46.048Z,96181.73
2019-05-16T23:14:17.033Z,96175.80
2019-05-16T23:16:46.563Z,96177.17
2019-05-16T23:19:17.090Z,96175.31
2019-05-16T23:21:47.460Z,96170.71
2019-05-16T23:24:17.431Z,96173.14
2019-05-16T23:26:47.146Z,96165.69
2019-05-16T23:29:17.083Z,96166.75
2019-05-16T23:31:47.174Z,96166.47
2019-05-16T23:34:18.772Z,96159.27
2019-05-16T23:36:47.927Z,96164.83
2019-05-16T23:39:17.256Z,96160.31
2019-05-16T23:41:47.400Z,96149.59
2019-05-16T23:44:17.088Z,96150.95
2019-05-16T23:46:47.057Z,96147.70
2019-05-16T23:49:16.874Z,96143.41
2019-05-16T23:51:47.327Z,96139.16
2019-05-16T23:54:17.359Z,96139.67
2019-05-16T23:56:46.822Z,96137.32
2019-05-16T23:59:17.140Z,96142.89
